Time;durP1;ratioP1;P1;durP2;ratioP2;P2;SDS_P1;SDS_P2;PMS_P1;PMS_P2;Temp;Humidity;BMP_temperature;BMP_pressure;BME280_temperature;BME280_humidity;BME280_pressure;Samples;Min_cycle;Max_cycle;Signal;HPM_P1;HPM_P2
2021/04/17 00:05:18;;;;;;;;;;;;;;;;;;;;;
2021/04/17 03:30:11;;;;;;;2.28;0.77;;;14.80;55.80;;;;;;5912712;24;20029;-77
2021/04/17 03:37:24;;;;;;;;;;;;;;;;;;;;;
2021/04/17 03:52:31;;;;;;;2.28;0.73;;;14.70;56.30;;;;;;5867577;24;20408;-76
2021/04/17 03:59:45;;;;;;;2.10;0.82;;;14.60;56.30;;;;;;5818208;24;20365;-77
2021/04/17 04:03:07;;;;;;;1.67;0.60;;;14.60;56.30;;;;;;5826474;24;20010;-77
2021/04/17 04:06:39;;;;;;;;;;;;;;;;;;;;;
2021/04/17 04:09:23;;;;;;;2.50;0.60;;;14.60;56.80;;;;;;5764951;24;20027;-75
2021/04/17 04:12:09;;;;;;;4.97;1.02;;;14.60;56.70;;;;;;5768549;24;20368;-78
2021/04/17 04:14:35;;;;;;;2.90;0.60;;;14.60;56.00;;;;;;5767784;24;20098;-77
2021/04/17 04:17:02;;;;;;;1.88;0.52;;;14.60;56.20;;;;;;5767655;24;20431;-78
2021/04/17 04:19:28;;;;;;;2.65;0.68;;;14.70;54.10;;;;;;5774644;24;20015;-76
2021/04/17 04:21:53;;;;;;;3.17;0.50;;;14.70;55.80;;;;;;5769761;24;20016;-77
2021/04/17 04:24:19;;;;;;;3.42;0.75;;;15.00;55.70;;;;;;5984194;23;20015;-74
2021/04/17 04:26:45;;;;;;;10.52;0.80;;;15.30;55.30;;;;;;6060405;23;20057;-77
2021/04/17 04:29:11;;;;;;;6.45;0.85;;;15.50;54.90;;;;;;6099553;23;20006;-75
2021/04/17 04:31:37;;;;;;;4.50;0.68;;;15.80;54.40;;;;;;6099670;23;20014;-77
2021/04/17 04:34:03;;;;;;;6.10;0.52;;;16.10;54.20;;;;;;6108796;23;20033;-74
2021/04/17 04:36:31;;;;;;;6.03;0.90;;;16.20;54.10;;;;;;6109955;23;20018;-70
2021/04/17 04:38:57;;;;;;;4.95;0.75;;;16.30;54.10;;;;;;6109124;23;20423;-76
2021/04/17 04:41:23;;;;;;;5.88;0.60;;;16.40;54.10;;;;;;6109336;23;20008;-76
2021/04/17 04:43:49;;;;;;;4.03;0.90;;;16.40;53.80;;;;;;6109309;23;20073;-73
2021/04/17 04:46:15;;;;;;;8.20;1.17;;;16.40;54.20;;;;;;6109281;23;20038;-75
2021/04/17 04:48:44;;;;;;;8.13;1.45;;;16.30;54.20;;;;;;6109677;23;20018;-78
2021/04/17 04:51:10;;;;;;;6.18;0.90;;;16.40;55.10;;;;;;6109084;23;20006;-76
2021/04/17 04:53:37;;;;;;;9.95;1.98;;;16.50;55.20;;;;;;6108768;23;20037;-76
2021/04/17 04:56:04;;;;;;;11.02;1.60;;;16.30;51.70;;;;;;6109293;23;20013;-75
2021/04/17 04:58:30;;;;;;;4.50;1.17;;;16.40;55.80;;;;;;6109135;23;20478;-75
2021/04/17 05:00:56;;;;;;;8.90;1.25;;;16.60;56.30;;;;;;6099052;23;20062;-75
2021/04/17 05:03:22;;;;;;;3.95;1.45;;;16.80;56.60;;;;;;6109413;23;20010;-76
2021/04/17 05:05:47;;;;;;;7.03;1.63;;;17.00;56.70;;;;;;6109164;23;20333;-76
2021/04/17 05:08:13;;;;;;;7.88;0.90;;;17.20;56.50;;;;;;6120605;23;20102;-76
2021/04/17 05:10:39;;;;;;;8.80;1.58;;;17.30;56.20;;;;;;6139166;23;20037;-76
2021/04/17 05:13:06;;;;;;;4.15;1.48;;;17.40;56.20;;;;;;6137814;23;20018;-76
2021/04/17 05:15:31;;;;;;;3.53;1.08;;;17.50;56.30;;;;;;6137954;23;20021;-77
2021/04/17 05:17:57;;;;;;;7.45;1.05;;;17.60;56.10;;;;;;6138195;23;20037;-76
2021/04/17 05:20:23;;;;;;;5.45;0.98;;;17.70;56.00;;;;;;6137791;23;20057;-76
2021/04/17 05:22:49;;;;;;;3.17;1.15;;;17.70;56.10;;;;;;6138199;23;20013;-77
2021/04/17 05:25:15;;;;;;;4.82;0.90;;;17.80;56.00;;;;;;6127897;23;20032;-81
2021/04/17 05:27:41;;;;;;;7.13;1.33;;;17.80;55.60;;;;;;6137863;23;20081;-80
2021/04/17 05:30:08;;;;;;;4.95;1.00;;;17.80;55.60;;;;;;6137343;23;20018;-80
2021/04/17 05:32:34;;;;;;;7.55;1.45;;;17.80;55.30;;;;;;6138104;23;20037;-78
2021/04/17 05:35:00;;;;;;;3.47;1.10;;;17.80;55.20;;;;;;6138558;23;20014;-79
2021/04/17 05:37:26;;;;;;;6.40;1.42;;;17.80;55.00;;;;;;6138499;23;20037;-80
2021/04/17 05:39:51;;;;;;;6.72;0.90;;;17.80;54.60;;;;;;6137766;23;20018;-78
2021/04/17 05:42:17;;;;;;;5.38;0.98;;;17.70;54.60;;;;;;6128099;23;20024;-77
2021/04/17 05:44:43;;;;;;;4.25;0.80;;;17.70;54.80;;;;;;6137947;23;20438;-77
2021/04/17 05:47:09;;;;;;;9.43;0.98;;;17.70;55.20;;;;;;6138178;23;20065;-73
2021/04/17 05:49:35;;;;;;;7.40;1.20;;;17.70;55.30;;;;;;6138757;23;20065;-76
2021/04/17 05:52:01;;;;;;;8.27;1.23;;;17.70;55.40;;;;;;6128321;23;20447;-77
2021/04/17 05:54:27;;;;;;;7.63;1.25;;;17.80;55.70;;;;;;6138367;23;20438;-76
2021/04/17 05:56:52;;;;;;;5.10;0.80;;;17.80;55.70;;;;;;6128324;23;20069;-77
2021/04/17 05:59:18;;;;;;;8.23;1.00;;;17.80;55.80;;;;;;6138206;23;20017;-76
2021/04/17 06:01:44;;;;;;;5.20;0.98;;;17.80;55.70;;;;;;6138148;23;20014;-76
2021/04/17 06:04:10;;;;;;;8.65;1.48;;;17.80;55.80;;;;;;6138137;23;20041;-76
2021/04/17 06:06:36;;;;;;;9.00;1.30;;;17.80;55.50;;;;;;6138133;23;20017;-77
2021/04/17 06:09:02;;;;;;;5.00;1.58;;;17.80;55.40;;;;;;6130721;23;20388;-77
2021/04/17 06:11:28;;;;;;;9.70;1.25;;;17.80;55.40;;;;;;6138027;23;20014;-77
2021/04/17 06:13:54;;;;;;;11.13;1.15;;;17.80;55.30;;;;;;6112279;23;20014;-76
2021/04/17 06:16:20;;;;;;;6.95;1.08;;;17.80;55.30;;;;;;6129305;23;20025;-77
2021/04/17 06:18:46;;;;;;;9.85;1.48;;;17.70;55.10;;;;;;6112255;23;20017;-77
2021/04/17 06:21:12;;;;;;;6.22;1.25;;;17.70;55.50;;;;;;6128460;23;20093;-76
2021/04/17 06:23:38;;;;;;;6.32;1.40;;;17.70;55.60;;;;;;6137937;23;20075;-78
2021/04/17 06:26:04;;;;;;;7.55;1.40;;;17.70;55.80;;;;;;6137574;23;20126;-77
2021/04/17 06:28:31;;;;;;;8.50;1.38;;;17.70;55.80;;;;;;6127441;23;20018;-77
2021/04/17 06:30:57;;;;;;;12.45;1.50;;;17.70;56.00;;;;;;6111850;23;20006;-78
2021/04/17 06:33:23;;;;;;;7.53;1.55;;;17.70;56.00;;;;;;6137587;23;20109;-78
2021/04/17 06:35:49;;;;;;;7.03;1.23;;;17.70;55.80;;;;;;6129625;23;20411;-79
2021/04/17 06:42:12;;;;;;;6.93;1.45;;;17.80;55.20;;;;;;6129979;23;20462;-81
2021/04/17 06:48:20;;;;;;;9.82;1.20;;;17.90;55.00;;;;;;6128581;23;20106;-79
2021/04/17 06:50:48;;;;;;;8.77;1.60;;;17.90;55.20;;;;;;6139746;23;20411;-79
2021/04/17 06:53:17;;;;;;;9.98;1.60;;;18.00;54.90;;;;;;6139136;23;20084;-76
2021/04/17 06:55:51;;;;;;;10.40;1.83;;;18.00;54.60;;;;;;6139277;23;20021;-80
2021/04/17 06:58:18;;;;;;;9.57;1.80;;;18.00;54.30;;;;;;6139200;23;20014;-78
2021/04/17 07:00:45;;;;;;;9.27;1.50;;;18.00;54.50;;;;;;6114121;23;20018;-77
2021/04/17 07:03:11;;;;;;;8.68;1.88;;;18.00;54.90;;;;;;6139122;23;20010;-74
2021/04/17 07:05:37;;;;;;;9.05;1.85;;;18.00;54.70;;;;;;6139613;23;20347;-77
2021/04/17 07:08:03;;;;;;;5.95;0.93;;;18.00;54.80;;;;;;6129337;23;20257;-78
2021/04/17 07:10:29;;;;;;;11.90;1.73;;;18.10;54.90;;;;;;6138880;23;20494;-77
2021/04/17 07:13:27;;;;;;;6.40;1.10;;;18.10;55.00;;;;;;6139948;23;20029;-78
2021/04/17 07:16:03;;;;;;;6.10;1.45;;;18.10;55.10;;;;;;6106682;23;20017;-78
2021/04/17 07:18:33;;;;;;;9.50;1.75;;;18.10;55.20;;;;;;6139001;23;20045;-77
2021/04/17 07:21:14;;;;;;;6.40;1.63;;;18.10;55.30;;;;;;6139215;23;20085;-79
2021/04/17 07:23:45;;;;;;;6.28;1.30;;;18.10;55.20;;;;;;6139236;23;20040;-77
2021/04/17 07:26:19;;;;;;;6.55;1.30;;;18.10;55.10;;;;;;6138861;23;20036;-76
2021/04/17 07:28:54;;;;;;;5.22;1.80;;;18.10;55.20;;;;;;6139146;23;20185;-77
2021/04/17 07:31:24;;;;;;;6.10;1.35;;;18.10;55.30;;;;;;6139308;23;20010;-76
2021/04/17 07:33:50;;;;;;;7.80;1.65;;;18.00;55.30;;;;;;6139605;23;20013;-77
2021/04/17 07:36:16;;;;;;;7.05;1.70;;;18.00;55.40;;;;;;6139604;23;20024;-76
2021/04/17 07:38:43;;;;;;;4.35;1.13;;;18.00;55.40;;;;;;6138985;23;20009;-76
2021/04/17 07:41:21;;;;;;;7.82;1.00;;;18.00;55.40;;;;;;6139241;23;20081;-77
2021/04/17 07:44:03;;;;;;;9.43;1.58;;;18.00;55.50;;;;;;6139181;23;20081;-77
2021/04/17 07:46:32;;;;;;;7.45;1.45;;;18.00;55.50;;;;;;6139217;23;20014;-77
2021/04/17 07:49:14;;;;;;;8.15;1.40;;;17.90;55.50;;;;;;6138852;23;20044;-76
2021/04/17 07:52:09;;;;;;;4.88;1.35;;;17.90;55.30;;;;;;6139260;23;20017;-77
2021/04/17 07:54:39;;;;;;;5.45;0.90;;;17.90;55.20;;;;;;6139384;23;20032;-79
2021/04/17 07:57:09;;;;;;;3.95;1.55;;;17.90;55.20;;;;;;6138869;23;20081;-84
2021/04/17 07:59:36;;;;;;;6.28;1.60;;;17.90;54.30;;;;;;6138685;23;20013;-77
2021/04/17 08:02:03;;;;;;;4.25;1.35;;;17.90;53.40;;;;;;6138195;23;20037;-76
2021/04/17 08:04:32;;;;;;;5.40;1.30;;;17.90;52.90;;;;;;6138618;23;20013;-77
2021/04/17 08:07:00;;;;;;;8.55;1.40;;;17.90;52.80;;;;;;6138602;23;20407;-77
2021/04/17 08:09:36;;;;;;;4.35;1.20;;;17.90;53.10;;;;;;6131085;23;20014;-82
2021/04/17 08:12:02;;;;;;;4.38;1.15;;;17.90;53.10;;;;;;6129733;23;20010;-74
2021/04/17 08:14:32;;;;;;;7.40;1.58;;;17.90;53.80;;;;;;6138727;23;20006;-79
2021/04/17 08:16:58;;;;;;;2.90;0.88;;;17.90;53.40;;;;;;6138256;23;20430;-75
2021/04/17 08:19:25;;;;;;;5.80;1.42;;;18.00;53.40;;;;;;6138023;23;20014;-78
2021/04/17 08:21:52;;;;;;;3.85;1.13;;;17.90;53.30;;;;;;6129149;23;20021;-76
2021/04/17 08:24:26;;;;;;;4.78;1.40;;;17.90;53.40;;;;;;6138651;23;20013;-76
2021/04/17 08:27:00;;;;;;;4.15;1.17;;;17.90;53.20;;;;;;6138813;23;20010;-80
2021/04/17 08:29:47;;;;;;;6.35;1.45;;;17.90;53.30;;;;;;6138272;23;20018;-80
2021/04/17 08:32:36;;;;;;;5.15;1.20;;;18.00;52.90;;;;;;6138346;23;20014;-76
2021/04/17 08:35:23;;;;;;;6.38;1.10;;;17.90;52.50;;;;;;6138962;23;20013;-76
2021/04/17 08:37:52;;;;;;;4.88;1.20;;;17.90;52.60;;;;;;6138329;23;20017;-78
2021/04/17 08:40:38;;;;;;;5.65;1.50;;;17.90;53.10;;;;;;6138227;23;20038;-79
2021/04/17 08:43:28;;;;;;;11.32;3.15;;;17.90;52.90;;;;;;6138166;23;20014;-76
2021/04/17 08:46:02;;;;;;;16.70;4.30;;;18.00;52.70;;;;;;6138485;23;20010;-75
2021/04/17 08:49:01;;;;;;;13.55;3.63;;;17.80;54.60;;;;;;6128315;23;20022;-80
2021/04/17 08:51:31;;;;;;;9.70;2.78;;;17.80;54.70;;;;;;6042684;23;20014;-79
2021/04/17 08:54:00;;;;;;;9.55;2.47;;;17.90;54.10;;;;;;6102587;23;20021;-77
2021/04/17 08:56:52;;;;;;;9.27;2.15;;;17.90;53.20;;;;;;6137821;23;20418;-79
2021/04/17 08:59:28;;;;;;;9.35;2.15;;;17.90;52.00;;;;;;6138253;23;20376;-75
2021/04/17 09:01:57;;;;;;;7.15;2.20;;;17.90;51.40;;;;;;6138239;23;20018;-81
2021/04/17 09:04:23;;;;;;;8.27;2.10;;;17.80;51.00;;;;;;6137774;23;20399;-77
2021/04/17 09:06:52;;;;;;;8.90;2.03;;;17.80;50.20;;;;;;6138260;23;20045;-78
2021/04/17 09:09:20;;;;;;;4.97;1.45;;;17.80;49.80;;;;;;6131307;23;20014;-75
2021/04/17 09:11:51;;;;;;;3.75;1.63;;;17.70;49.60;;;;;;6138103;23;20010;-77
2021/04/17 09:14:26;;;;;;;4.30;2.15;;;17.70;49.50;;;;;;6137723;23;20141;-76
2021/04/17 09:16:57;;;;;;;4.30;1.60;;;17.60;49.10;;;;;;6138189;23;20045;-79
2021/04/17 09:19:41;;;;;;;5.03;1.90;;;17.60;49.00;;;;;;6137847;23;20092;-78
2021/04/17 09:22:25;;;;;;;4.93;1.65;;;17.60;48.40;;;;;;6138901;23;20020;-78
2021/04/17 09:24:52;;;;;;;6.40;1.80;;;17.50;48.40;;;;;;6137949;23;20013;-76
2021/04/17 09:27:29;;;;;;;5.88;1.70;;;17.50;48.80;;;;;;6137858;23;20048;-77
2021/04/17 09:30:11;;;;;;;7.40;1.83;;;17.40;48.60;;;;;;6127847;23;20032;-74
2021/04/17 09:32:45;;;;;;;6.30;1.67;;;17.40;48.60;;;;;;6138231;23;20018;-76
2021/04/17 09:35:33;;;;;;;8.35;2.08;;;17.40;48.20;;;;;;6137922;23;20025;-77
2021/04/17 09:38:16;;;;;;;5.45;1.50;;;17.30;47.60;;;;;;6138142;23;20010;-77
2021/04/17 09:40:50;;;;;;;7.85;1.85;;;17.30;47.50;;;;;;6138146;23;20018;-77
2021/04/17 09:43:31;;;;;;;7.25;1.60;;;17.30;47.90;;;;;;6138820;23;20021;-77
2021/04/17 09:46:02;;;;;;;4.82;1.80;;;17.20;48.10;;;;;;6137197;23;20010;-78
2021/04/17 09:48:37;;;;;;;4.68;1.50;;;17.20;48.50;;;;;;6139071;23;20523;-78
2021/04/17 09:51:03;;;;;;;3.47;1.17;;;17.20;49.50;;;;;;6138586;23;20040;-78
2021/04/17 09:53:30;;;;;;;4.50;1.42;;;17.20;49.10;;;;;;6138055;23;20403;-76
2021/04/17 09:55:56;;;;;;;5.20;1.30;;;17.20;49.40;;;;;;6127901;23;20096;-77
2021/04/17 09:58:25;;;;;;;6.28;1.60;;;17.20;49.50;;;;;;6137909;23;20339;-76
2021/04/17 10:00:51;;;;;;;5.05;1.63;;;17.20;49.60;;;;;;6138462;23;20022;-77
2021/04/17 10:03:28;;;;;;;2.50;1.17;;;17.10;49.90;;;;;;6138187;23;20010;-76
2021/04/17 10:05:57;;;;;;;4.22;1.20;;;17.20;50.20;;;;;;6137890;23;20010;-76
2021/04/17 10:08:35;;;;;;;4.15;1.63;;;17.10;50.30;;;;;;6136491;23;20021;-77
2021/04/17 10:11:02;;;;;;;2.90;1.20;;;17.10;50.40;;;;;;6139702;23;20014;-77
2021/04/17 10:13:42;;;;;;;3.15;1.23;;;17.10;50.50;;;;;;6114624;23;20009;-78
2021/04/17 10:16:09;;;;;;;3.90;1.08;;;17.10;50.70;;;;;;6139564;23;20046;-78
2021/04/17 10:18:36;;;;;;;7.03;1.33;;;17.10;50.50;;;;;;6130376;23;20038;-76
2021/04/17 10:21:04;;;;;;;4.55;1.60;;;17.10;50.70;;;;;;6140374;23;20013;-78
2021/04/17 10:23:32;;;;;;;3.03;1.15;;;17.10;50.80;;;;;;6139600;23;20010;-78
2021/04/17 10:26:06;;;;;;;2.33;0.82;;;17.10;50.80;;;;;;6130564;23;20010;-77
2021/04/17 10:28:32;;;;;;;4.25;1.27;;;17.10;51.00;;;;;;6139922;23;20089;-77
2021/04/17 10:31:02;;;;;;;4.22;1.10;;;17.10;51.00;;;;;;6140010;23;20010;-78
2021/04/17 10:33:30;;;;;;;3.55;0.98;;;17.10;51.10;;;;;;6140098;23;20009;-77
2021/04/17 10:36:02;;;;;;;5.80;1.65;;;17.00;51.10;;;;;;6139873;23;20419;-78
2021/04/17 10:38:30;;;;;;;5.43;1.23;;;17.00;51.20;;;;;;6139557;23;20411;-78
2021/04/17 10:40:58;;;;;;;3.83;1.20;;;17.00;51.20;;;;;;6139826;23;20018;-76
2021/04/17 10:43:24;;;;;;;3.65;1.15;;;17.00;51.20;;;;;;6140080;23;20076;-77
2021/04/17 10:45:58;;;;;;;2.80;1.15;;;17.00;51.40;;;;;;6114099;23;20009;-76
2021/04/17 10:48:24;;;;;;;;;;;17.00;51.50;;;;;;6140815;23;20018;-78
2021/04/17 10:51:06;;;;;;;3.05;1.17;;;16.90;51.70;;;;;;6140594;23;19913;-78
2021/04/17 10:53:38;;;;;;;4.10;1.15;;;16.90;51.70;;;;;;6139760;23;20010;-79
2021/04/17 10:56:11;;;;;;;4.72;1.15;;;16.90;51.60;;;;;;6139871;23;20021;-78
2021/04/17 10:58:37;;;;;;;3.28;1.27;;;16.90;51.70;;;;;;6139437;23;20303;-77
2021/04/17 11:01:13;;;;;;;2.42;1.10;;;16.90;51.70;;;;;;6139515;23;20398;-78
2021/04/17 11:03:48;;;;;;;1.90;0.85;;;16.90;51.80;;;;;;6139811;23;20086;-76
2021/04/17 11:06:23;;;;;;;2.38;0.88;;;16.90;52.00;;;;;;6139982;23;20018;-77
2021/04/17 11:08:51;;;;;;;3.72;0.93;;;16.80;52.60;;;;;;6135934;23;20032;-78
2021/04/17 11:11:20;;;;;;;2.45;1.02;;;16.80;52.00;;;;;;6139691;23;20010;-76
2021/04/17 11:14:01;;;;;;;3.20;1.17;;;16.80;52.10;;;;;;6140024;23;20021;-76
2021/04/17 11:16:42;;;;;;;3.80;1.05;;;16.80;52.20;;;;;;6139520;23;20010;-77
2021/04/17 11:19:34;;;;;;;3.92;1.20;;;16.80;52.30;;;;;;6140044;23;20010;-78
2021/04/17 11:22:10;;;;;;;5.13;1.38;;;16.80;52.20;;;;;;6138500;23;20033;-80
2021/04/17 11:24:41;;;;;;;3.58;0.90;;;16.80;52.00;;;;;;6129580;23;20285;-76
2021/04/17 11:27:07;;;;;;;6.40;1.67;;;16.70;51.90;;;;;;6139741;23;20044;-77
2021/04/17 11:29:33;;;;;;;4.55;1.30;;;16.80;51.50;;;;;;6104418;23;20010;-76
2021/04/17 11:32:00;;;;;;;4.68;1.33;;;16.70;51.40;;;;;;6139495;23;20033;-77
2021/04/17 11:34:26;;;;;;;3.67;1.20;;;16.70;51.60;;;;;;6138869;23;20088;-76
2021/04/17 11:36:52;;;;;;;5.35;1.40;;;16.70;51.70;;;;;;6104890;23;20116;-76
2021/04/17 11:39:18;;;;;;;3.58;1.10;;;16.70;52.00;;;;;;6113564;23;20458;-77
2021/04/17 11:41:44;;;;;;;4.40;1.02;;;16.70;52.00;;;;;;6113568;23;20006;-79
2021/04/17 11:44:10;;;;;;;5.53;1.02;;;16.60;52.10;;;;;;6103659;23;20021;-77
2021/04/17 11:46:37;;;;;;;4.70;1.75;;;16.60;52.30;;;;;;6128979;23;20050;-76
2021/04/17 11:49:04;;;;;;;5.30;1.00;;;16.60;52.40;;;;;;6113797;23;20010;-75
2021/04/17 11:51:30;;;;;;;2.15;0.98;;;16.60;52.50;;;;;;6113458;23;20396;-77
2021/04/17 11:53:56;;;;;;;3.38;1.10;;;16.60;53.30;;;;;;6103943;23;20024;-77
2021/04/17 11:56:22;;;;;;;4.93;1.08;;;16.60;52.70;;;;;;6080798;23;20033;-78
2021/04/17 11:58:48;;;;;;;3.42;1.42;;;16.60;52.80;;;;;;6103801;23;20088;-78
2021/04/17 12:01:14;;;;;;;2.28;0.85;;;16.60;52.90;;;;;;6129394;23;20006;-77
2021/04/17 12:03:40;;;;;;;3.83;1.08;;;16.50;52.90;;;;;;6139018;23;20014;-77
2021/04/17 12:06:07;;;;;;;2.42;1.10;;;16.50;53.00;;;;;;6104144;23;20022;-78
2021/04/17 12:08:33;;;;;;;4.13;1.08;;;16.50;53.10;;;;;;6103162;23;20400;-76
2021/04/17 12:11:01;;;;;;;4.15;1.08;;;16.50;53.20;;;;;;6103745;23;20025;-76
2021/04/17 12:13:27;;;;;;;4.65;1.00;;;16.50;53.30;;;;;;6103713;23;20400;-77
2021/04/17 12:15:53;;;;;;;2.25;0.90;;;16.50;53.30;;;;;;6129138;23;20073;-76
2021/04/17 12:18:19;;;;;;;2.92;1.00;;;16.50;53.40;;;;;;6128824;23;20068;-77
2021/04/17 12:20:45;;;;;;;3.80;1.17;;;16.50;53.40;;;;;;6113943;23;20053;-77
2021/04/17 12:23:12;;;;;;;2.13;1.02;;;16.50;53.40;;;;;;6113657;23;20009;-75
2021/04/17 12:25:38;;;;;;;2.50;1.13;;;16.40;53.40;;;;;;6113442;23;20288;-75
2021/04/17 12:28:05;;;;;;;2.00;0.80;;;16.40;53.40;;;;;;6129161;23;20014;-77
2021/04/17 12:30:31;;;;;;;2.33;0.80;;;16.40;53.50;;;;;;6139180;23;20403;-76
2021/04/17 12:32:57;;;;;;;2.25;1.00;;;16.40;53.50;;;;;;6139067;23;20017;-77
2021/04/17 12:35:23;;;;;;;1.73;0.85;;;16.40;53.60;;;;;;6113235;23;20005;-76
2021/04/17 12:37:49;;;;;;;2.28;0.60;;;16.40;53.60;;;;;;6103295;23;20403;-76
2021/04/17 12:40:16;;;;;;;2.42;0.77;;;16.40;53.70;;;;;;6139103;23;20010;-78
2021/04/17 12:42:42;;;;;;;4.18;1.13;;;16.40;53.80;;;;;;6139040;23;20009;-76
2021/04/17 12:45:10;;;;;;;3.78;1.30;;;16.40;53.80;;;;;;6128402;23;20006;-76
2021/04/17 12:47:40;;;;;;;1.63;0.70;;;16.40;53.80;;;;;;6105794;23;20307;-77
2021/04/17 12:50:07;;;;;;;3.17;1.45;;;16.30;53.80;;;;;;6128926;23;20303;-78
2021/04/17 12:52:34;;;;;;;2.72;1.00;;;16.30;53.90;;;;;;6112579;23;20013;-78
2021/04/17 12:55:00;;;;;;;1.92;1.00;;;16.30;54.00;;;;;;6138358;23;20277;-77
2021/04/17 12:57:26;;;;;;;2.58;0.80;;;16.30;54.10;;;;;;6113696;23;20014;-76
2021/04/17 12:59:51;;;;;;;2.30;0.80;;;16.30;54.20;;;;;;6138306;23;20016;-76
2021/04/17 13:02:17;;;;;;;2.80;0.80;;;16.30;54.30;;;;;;6138795;23;20085;-75
2021/04/17 13:04:43;;;;;;;2.03;0.50;;;16.30;54.30;;;;;;6137354;23;20014;-77
2021/04/17 13:07:09;;;;;;;2.45;1.02;;;16.30;54.40;;;;;;6128133;23;20038;-75
2021/04/17 13:09:35;;;;;;;5.47;1.55;;;16.30;54.30;;;;;;6128204;23;20028;-76
2021/04/17 13:12:00;;;;;;;4.93;1.52;;;16.30;53.90;;;;;;6128199;23;20300;-77
2021/04/17 13:14:26;;;;;;;4.32;1.13;;;16.30;52.60;;;;;;6138434;23;20080;-77
2021/04/17 13:16:53;;;;;;;5.90;1.33;;;16.30;52.80;;;;;;6113014;23;20268;-76
2021/04/17 13:19:19;;;;;;;4.40;1.25;;;16.30;52.90;;;;;;6138632;23;20014;-76
2021/04/17 13:21:44;;;;;;;5.82;1.10;;;16.20;53.00;;;;;;6137901;23;20017;-77
2021/04/17 13:24:11;;;;;;;2.13;0.75;;;16.30;53.20;;;;;;6137030;23;20018;-77
2021/04/17 13:26:37;;;;;;;3.35;0.98;;;16.20;53.20;;;;;;6112576;23;20006;-74
2021/04/17 13:29:03;;;;;;;4.95;0.85;;;16.20;53.20;;;;;;6137488;23;20021;-78
2021/04/17 13:31:32;;;;;;;4.18;1.08;;;16.20;53.20;;;;;;6137901;23;20009;-79
2021/04/17 13:34:04;;;;;;;5.55;1.05;;;16.20;53.30;;;;;;6103482;23;20161;-75
2021/04/17 13:36:37;;;;;;;4.13;1.10;;;16.20;53.60;;;;;;6112362;23;20025;-75
2021/04/17 13:39:05;;;;;;;3.67;0.93;;;16.20;53.90;;;;;;6138016;23;20010;-77
2021/04/17 13:41:32;;;;;;;6.93;1.30;;;16.20;54.20;;;;;;6078102;23;20014;-75
2021/04/17 13:44:09;;;;;;;;;;;;;;;;;;;;;
2021/04/17 13:46:38;;;;;;;7.65;1.10;;;16.30;54.60;;;;;;6137655;23;20041;-77
2021/04/17 13:49:07;;;;;;;6.93;1.23;;;16.30;54.40;;;;;;6137947;23;20032;-76
2021/04/17 13:51:48;;;;;;;5.00;1.10;;;16.30;54.50;;;;;;6127837;23;20471;-79
2021/04/17 14:05:39;;;;;;;5.28;1.73;;;16.30;52.10;;;;;;6157191;23;20299;-80
2021/04/17 14:09:18;;;;;;;5.07;1.70;;;16.30;50.60;;;;;;6132495;23;20016;-78
2021/04/17 14:19:56;;;;;;;5.32;2.00;;;16.40;50.40;;;;;;6038663;23;20014;-79
2021/04/17 14:23:19;;;;;;;;;;;;;;;;;;;;;
2021/04/17 14:37:13;;;;;;;4.25;1.20;;;16.50;51.30;;;;;;6187148;23;20011;-79
2021/04/17 14:44:10;;;;;;;5.00;1.13;;;16.50;51.40;;;;;;6096395;23;20014;-78
2021/04/17 14:46:53;;;;;;;15.77;1.88;;;16.50;51.70;;;;;;6062295;23;20015;-77
2021/04/17 14:50:08;;;;;;;6.15;1.38;;;16.50;52.10;;;;;;6076965;23;20026;-78
2021/04/17 14:52:34;;;;;;;;;;;16.50;52.00;;;;;;6044178;23;20046;-79
2021/04/17 14:55:05;;;;;;;7.18;1.50;;;16.50;52.10;;;;;;6048149;23;20005;-76
2021/04/17 15:13:40;;;;;;;6.07;1.15;;;16.40;54.10;;;;;;5994169;23;20022;-78
2021/04/17 15:16:06;;;;;;;6.30;1.15;;;16.40;54.30;;;;;;6019347;23;20015;-77
2021/04/17 15:18:33;;;;;;;6.07;1.17;;;16.50;55.00;;;;;;6046090;23;20089;-76
2021/04/17 15:21:00;;;;;;;8.82;1.70;;;16.50;54.50;;;;;;6149587;23;20078;-77
2021/04/17 15:23:27;;;;;;;6.95;1.15;;;16.50;54.80;;;;;;6158008;23;20024;-77
2021/04/17 15:25:53;;;;;;;5.88;0.93;;;16.40;54.50;;;;;;6142884;23;20395;-77
2021/04/17 15:28:22;;;;;;;4.90;1.08;;;16.50;54.50;;;;;;6132554;23;20009;-78
2021/04/17 15:30:49;;;;;;;6.07;1.13;;;16.50;54.50;;;;;;6133376;23;20387;-77
2021/04/17 15:33:18;;;;;;;6.88;1.13;;;16.50;54.40;;;;;;6158955;23;20081;-77
2021/04/17 15:35:51;;;;;;;5.43;0.90;;;16.50;54.40;;;;;;6109541;23;20033;-77
2021/04/17 15:38:30;;;;;;;6.00;1.07;;;16.50;54.40;;;;;;6168560;23;20027;-77
2021/04/17 15:41:03;;;;;;;7.22;1.30;;;16.50;54.30;;;;;;6142673;23;20021;-76
2021/04/17 15:43:29;;;;;;;11.00;1.27;;;16.50;54.40;;;;;;6142643;23;20438;-76
2021/04/17 15:46:00;;;;;;;6.90;1.05;;;16.50;54.30;;;;;;6169046;23;20010;-76
2021/04/17 15:48:26;;;;;;;6.90;0.98;;;16.50;54.30;;;;;;6142509;23;20017;-77
2021/04/17 15:50:52;;;;;;;5.88;0.80;;;16.50;54.40;;;;;;6142699;23;20093;-76
2021/04/17 15:53:17;;;;;;;6.65;0.88;;;16.50;54.40;;;;;;6159545;23;20403;-76
2021/04/17 15:55:43;;;;;;;5.10;1.02;;;16.50;54.50;;;;;;6158351;23;20029;-77
2021/04/17 16:14:32;;;;;;;3.60;0.80;;;16.40;54.70;;;;;;6188616;23;20009;-76
2021/04/17 16:17:00;;;;;;;3.80;1.20;;;16.50;54.90;;;;;;6172377;23;20020;-77
2021/04/17 16:19:25;;;;;;;4.72;0.85;;;16.50;54.80;;;;;;6198365;23;20016;-75
2021/04/17 16:21:53;;;;;;;4.53;1.02;;;16.50;54.70;;;;;;6197783;23;20013;-79
2021/04/17 16:24:19;;;;;;;2.78;0.90;;;16.40;54.60;;;;;;6187895;23;20029;-76
2021/04/17 16:26:45;;;;;;;2.35;0.98;;;16.50;54.60;;;;;;6198623;23;20009;-75
2021/04/17 16:29:16;;;;;;;2.55;1.15;;;16.50;54.60;;;;;;6198091;23;20410;-76
2021/04/17 16:31:42;;;;;;;4.47;1.15;;;16.50;54.70;;;;;;6187808;23;20017;-75
2021/04/17 16:34:09;;;;;;;5.07;0.90;;;16.40;54.70;;;;;;6188527;23;20020;-77
2021/04/17 16:36:35;;;;;;;3.95;0.80;;;16.50;55.00;;;;;;6197798;23;20045;-77
2021/04/17 16:39:05;;;;;;;4.70;1.20;;;16.50;54.90;;;;;;6198254;23;20414;-77
2021/04/17 16:41:33;;;;;;;3.28;1.17;;;16.50;55.00;;;;;;6198409;23;20019;-78
2021/04/17 16:44:03;;;;;;;4.55;1.10;;;16.50;55.20;;;;;;6197944;23;20017;-77
2021/04/17 16:46:28;;;;;;;4.63;0.80;;;16.50;55.40;;;;;;6188174;23;20012;-77
2021/04/17 16:48:54;;;;;;;2.42;0.90;;;16.50;55.50;;;;;;6162300;23;20084;-77
2021/04/17 16:51:20;;;;;;;2.17;0.80;;;16.50;55.60;;;;;;6197943;23;20023;-78
2021/04/17 16:53:46;;;;;;;3.83;0.70;;;16.50;55.70;;;;;;6197984;23;20033;-77
2021/04/17 16:56:12;;;;;;;5.45;1.20;;;16.50;55.80;;;;;;6172460;23;20302;-77
2021/04/17 16:58:37;;;;;;;2.10;0.65;;;16.50;55.90;;;;;;6197907;23;20330;-77
2021/04/17 17:01:03;;;;;;;3.05;0.98;;;16.50;56.00;;;;;;6171873;23;20080;-77
2021/04/17 17:03:30;;;;;;;4.20;1.17;;;16.50;56.00;;;;;;6189280;23;20017;-76
2021/04/17 17:05:55;;;;;;;3.35;0.80;;;16.50;56.10;;;;;;6187817;23;20091;-77
2021/04/17 17:08:22;;;;;;;4.57;1.30;;;16.50;56.20;;;;;;6187249;23;20411;-77
2021/04/17 17:10:48;;;;;;;4.28;1.10;;;16.50;56.40;;;;;;6198196;23;20013;-76
2021/04/17 17:13:14;;;;;;;3.85;0.95;;;16.50;56.30;;;;;;6187933;23;20013;-78
2021/04/17 17:15:40;;;;;;;2.78;1.25;;;16.60;56.10;;;;;;6161831;23;20013;-76
2021/04/17 17:18:06;;;;;;;3.72;1.08;;;16.60;56.00;;;;;;6171781;23;20028;-78
2021/04/17 17:20:32;;;;;;;6.93;1.00;;;16.60;56.10;;;;;;6197417;23;20437;-78
2021/04/17 17:22:58;;;;;;;2.35;0.80;;;16.60;56.20;;;;;;6197497;23;20008;-77
2021/04/17 17:25:24;;;;;;;7.70;1.38;;;16.60;56.20;;;;;;6197271;23;20025;-77
2021/04/17 17:27:50;;;;;;;3.58;1.20;;;16.60;55.90;;;;;;6187678;23;20009;-77
2021/04/17 17:30:16;;;;;;;4.07;1.52;;;16.60;55.70;;;;;;6197533;23;20036;-76
2021/04/17 17:32:43;;;;;;;8.30;1.88;;;16.60;55.60;;;;;;6187860;23;20417;-78
2021/04/17 17:35:10;;;;;;;6.82;1.83;;;16.60;55.50;;;;;;6198126;23;20005;-75
2021/04/17 17:37:36;;;;;;;7.32;1.58;;;16.50;55.50;;;;;;6171483;23;20020;-75
2021/04/17 17:40:05;;;;;;;7.82;1.60;;;16.50;55.50;;;;;;6187524;23;20328;-76
2021/04/17 17:42:32;;;;;;;8.65;2.17;;;16.50;55.60;;;;;;6197349;23;20013;-79
2021/04/17 17:44:58;;;;;;;5.57;1.17;;;16.50;55.60;;;;;;6187470;23;20013;-78
2021/04/17 17:47:27;;;;;;;8.48;1.38;;;16.50;55.60;;;;;;6161901;23;20020;-77
2021/04/17 17:49:55;;;;;;;3.85;1.42;;;16.50;55.90;;;;;;6171147;23;20028;-77
2021/04/17 17:52:22;;;;;;;5.05;1.63;;;16.50;55.90;;;;;;6162371;23;20012;-78
2021/04/17 17:54:48;;;;;;;7.43;1.45;;;16.50;55.90;;;;;;6171905;23;20306;-76
2021/04/17 17:57:14;;;;;;;10.68;1.38;;;16.40;55.80;;;;;;6197091;23;20041;-77
2021/04/17 17:59:39;;;;;;;3.90;1.20;;;16.50;55.80;;;;;;6197493;23;20032;-76
2021/04/17 18:02:05;;;;;;;6.93;1.77;;;16.50;55.80;;;;;;6162942;23;20355;-76
2021/04/17 18:04:31;;;;;;;5.90;1.80;;;16.50;55.80;;;;;;6157785;23;20010;-76
2021/04/17 18:06:57;;;;;;;4.15;1.30;;;16.50;55.80;;;;;;6156601;23;20017;-75
2021/04/17 18:09:23;;;;;;;5.53;1.20;;;16.40;55.80;;;;;;6156896;23;20017;-77
2021/04/17 18:11:49;;;;;;;5.35;1.75;;;16.50;55.80;;;;;;6167809;23;20033;-77